Time;durP1;ratioP1;P1;durP2;ratioP2;P2;SDS_P1;SDS_P2;PMS_P1;PMS_P2;Temp;Humidity;BMP_temperature;BMP_pressure;BME280_temperature;BME280_humidity;BME280_pressure;Samples;Min_cycle;Max_cycle;Signal;HPM_P1;HPM_P2
2022/07/29 00:03:27;;;;;;;2.97;2.77;;;;;;;19.46;82.36;96920.94;4997857;28;20344;-66
2022/07/29 00:06:08;;;;;;;3.20;3.00;;;;;;;19.56;80.83;96919.44;4983154;28;20243;-68
2022/07/29 00:08:47;;;;;;;4.70;3.00;;;;;;;19.52;82.25;96922.63;4984846;28;20242;-65
2022/07/29 00:11:27;;;;;;;2.77;2.63;;;;;;;19.53;81.02;96913.50;4999585;28;20282;-65
2022/07/29 00:13:59;;;;;;;3.00;2.80;;;;;;;19.50;81.33;96913.19;4959071;28;20449;-65
2022/07/29 00:16:32;;;;;;;2.93;2.43;;;;;;;19.37;83.31;96909.00;4977648;28;20235;-63
2022/07/29 00:19:08;;;;;;;2.63;2.27;;;;;;;19.39;80.34;96909.56;5005340;28;20212;-64
2022/07/29 00:21:48;;;;;;;2.83;2.47;;;;;;;19.38;83.78;96906.03;4965398;28;21012;-66
2022/07/29 00:27:10;;;;;;;2.40;2.30;;;;;;;19.41;84.06;96899.38;5003977;28;20214;-67
2022/07/29 00:29:56;;;;;;;2.40;2.30;;;;;;;19.43;82.49;96899.94;4956950;28;21179;-65
2022/07/29 00:32:27;;;;;;;3.33;3.13;;;;;;;19.45;83.81;96899.69;5000995;28;20635;-62
2022/07/29 00:37:55;;;;;;;3.37;2.73;;;;;;;19.32;88.44;96901.66;5001958;28;20247;-66
2022/07/29 02:49:53;;;;;;;3.23;3.03;;;;;;;18.19;100.00;96842.47;3987055;28;22366;-63
2022/07/29 02:52:29;;;;;;;4.13;3.50;;;;;;;18.14;100.00;96833.50;4902359;28;20502;-68
2022/07/29 02:55:03;;;;;;;3.00;2.80;;;;;;;18.07;100.00;96833.69;4961322;28;20288;-66
2022/07/29 02:57:35;;;;;;;3.10;3.00;;;;;;;18.03;100.00;96825.28;4950255;28;20217;-67
2022/07/29 03:00:28;;;;;;;3.97;3.23;;;;;;;17.93;100.00;96835.81;4968086;28;20210;-68
2022/07/29 03:02:58;;;;;;;3.30;2.63;;;;;;;17.85;100.00;96831.63;4964489;28;20226;-66
2022/07/29 03:05:30;;;;;;;3.10;2.90;;;;;;;18.05;100.00;96838.47;4969100;28;20209;-67
2022/07/29 03:08:05;;;;;;;3.30;3.10;;;;;;;18.40;99.88;96833.94;4920030;28;20217;-68
2022/07/29 03:10:35;;;;;;;3.87;3.40;;;;;;;18.54;97.96;96837.94;4968139;28;20209;-68
2022/07/29 03:13:05;;;;;;;3.20;2.93;;;;;;;18.68;95.33;96834.94;4941778;28;20202;-68
2022/07/29 03:15:38;;;;;;;3.17;2.97;;;;;;;18.67;94.79;96834.09;4966790;28;20217;-68
2022/07/29 03:18:08;;;;;;;2.97;2.77;;;;;;;18.63;94.31;96838.34;4965833;28;20426;-67
2022/07/29 03:20:38;;;;;;;5.37;3.77;;;;;;;18.73;94.33;96838.50;4969198;28;20225;-68
2022/07/29 03:23:13;;;;;;;4.43;4.03;;;;;;;18.66;96.88;96833.31;4922495;28;20273;-68
2022/07/29 03:25:42;;;;;;;5.80;3.33;;;;;;;18.70;92.95;96832.81;4964944;28;20214;-68
2022/07/29 03:28:10;;;;;;;3.17;2.87;;;;;;;18.68;94.69;96838.41;4949705;28;21116;-68
2022/07/29 03:30:41;;;;;;;3.03;2.73;;;;;;;18.52;97.37;96840.88;4966954;28;20683;-68
2022/07/29 03:33:12;;;;;;;4.97;3.17;;;;;;;18.54;96.12;96840.59;4965064;28;21011;-69
2022/07/29 03:35:44;;;;;;;2.90;2.70;;;;;;;18.36;100.00;96842.47;4966623;28;20309;-68
2022/07/29 03:38:18;;;;;;;3.57;3.27;;;;;;;18.37;100.00;96843.28;4924775;28;23937;-69
2022/07/29 03:40:55;;;;;;;3.43;3.10;;;;;;;18.51;96.93;96838.41;4962760;28;20212;-68
2022/07/29 03:43:26;;;;;;;3.77;3.47;;;;;;;18.47;100.00;96845.31;4935841;28;20320;-68
2022/07/29 03:46:29;;;;;;;3.47;3.17;;;;;;;18.49;98.75;96845.91;4894355;28;20520;-65
2022/07/29 03:49:01;;;;;;;3.80;2.77;;;;;;;18.49;99.84;96849.41;4942126;28;20213;-67
2022/07/29 03:51:30;;;;;;;3.20;3.00;;;;;;;18.55;99.58;96852.16;4995548;28;20737;-69
2022/07/29 03:54:04;;;;;;;3.80;3.50;;;;;;;18.39;100.00;96849.25;4953153;28;20887;-66
2022/07/29 03:56:41;;;;;;;4.37;3.97;;;;;;;18.42;100.00;96847.94;4997636;28;20209;-66
2022/07/29 03:59:14;;;;;;;3.40;3.10;;;;;;;18.38;100.00;96844.94;5000910;28;20212;-67
2022/07/29 04:01:46;;;;;;;3.83;3.23;;;;;;;18.37;100.00;96844.09;4946960;28;20703;-67
2022/07/29 04:04:18;;;;;;;5.07;2.63;;;;;;;18.33;100.00;96855.56;4977061;28;20320;-65
2022/07/29 04:06:51;;;;;;;3.67;3.40;;;;;;;18.35;100.00;96851.59;5007671;28;20208;-67
2022/07/29 04:09:21;;;;;;;4.07;3.67;;;;;;;18.32;100.00;96859.28;4953604;28;20994;-67
2022/07/29 04:11:49;;;;;;;3.23;2.70;;;;;;;18.29;100.00;96857.09;5004487;28;20271;-69
2022/07/29 04:14:37;;;;;;;3.47;3.27;;;;;;;18.27;100.00;96870.75;5001366;28;20308;-67
2022/07/29 04:17:08;;;;;;;3.70;3.27;;;;;;;18.24;100.00;96873.94;4982604;28;20297;-68
2022/07/29 04:19:36;;;;;;;3.47;3.13;;;;;;;18.24;100.00;96881.97;5000959;28;20211;-69
2022/07/29 04:22:08;;;;;;;3.63;2.90;;;;;;;18.21;100.00;96877.88;4978825;28;20212;-68
2022/07/29 04:24:38;;;;;;;3.50;3.20;;;;;;;18.25;100.00;96882.78;5005016;28;20247;-69
2022/07/29 04:27:11;;;;;;;4.30;2.87;;;;;;;18.39;100.00;96880.59;4949339;28;20347;-68
2022/07/29 04:29:41;;;;;;;3.50;3.20;;;;;;;18.38;100.00;96885.16;5002519;28;20964;-69
2022/07/29 04:32:24;;;;;;;5.40;3.60;;;;;;;18.48;100.00;96893.38;4978174;28;20220;-69
2022/07/29 04:34:52;;;;;;;6.33;4.33;;;;;;;18.49;100.00;96894.19;5006867;28;20289;-67
2022/07/29 04:37:23;;;;;;;6.83;3.33;;;;;;;18.56;100.00;96894.03;4976650;28;20211;-69
2022/07/29 04:39:52;;;;;;;7.03;3.97;;;;;;;18.55;100.00;96892.41;4987311;28;20691;-69
2022/07/29 04:42:28;;;;;;;4.17;3.60;;;;;;;18.49;100.00;96895.00;4960586;28;20479;-69
2022/07/29 04:45:00;;;;;;;3.37;3.13;;;;;;;18.58;100.00;96899.97;5003899;28;20224;-67
2022/07/29 04:47:39;;;;;;;5.07;3.20;;;;;;;18.62;100.00;96893.88;4986088;28;20200;-67
2022/07/29 04:50:15;;;;;;;4.73;3.40;;;;;;;18.59;100.00;96896.22;4999752;28;20243;-66
2022/07/29 04:52:43;;;;;;;3.47;3.20;;;;;;;18.59;100.00;96891.69;4980809;28;20645;-66
2022/07/29 04:55:13;;;;;;;3.60;3.40;;;;;;;18.57;100.00;96895.66;5001853;28;20277;-68
2022/07/29 04:57:41;;;;;;;3.90;3.60;;;;;;;18.40;100.00;96896.47;4952771;28;20741;-67
2022/07/29 05:00:15;;;;;;;5.60;3.70;;;;;;;18.35;100.00;96896.34;4918483;28;20333;-69
2022/07/29 05:02:49;;;;;;;3.97;3.67;;;;;;;18.32;100.00;96899.50;4999336;28;20511;-70
2022/07/29 05:05:19;;;;;;;4.20;3.57;;;;;;;18.22;100.00;96895.59;4999233;28;20212;-68
2022/07/29 05:07:51;;;;;;;4.63;3.83;;;;;;;18.26;100.00;96893.25;4988256;28;20777;-69
2022/07/29 05:10:23;;;;;;;3.90;3.60;;;;;;;18.24;100.00;96892.69;5001977;28;20307;-68
2022/07/29 05:12:51;;;;;;;4.20;3.90;;;;;;;18.20;100.00;96891.56;5002622;28;20208;-68
2022/07/29 05:15:22;;;;;;;3.83;3.53;;;;;;;18.20;100.00;96886.19;4953031;28;20219;-68
2022/07/29 05:17:53;;;;;;;4.60;3.53;;;;;;;18.22;100.00;96890.25;4998963;28;20205;-70
2022/07/29 05:20:27;;;;;;;3.63;3.13;;;;;;;18.27;100.00;96884.16;5001652;28;20205;-68
2022/07/29 05:23:14;;;;;;;4.07;3.50;;;;;;;18.29;100.00;96884.75;4974694;28;20440;-67
2022/07/29 05:25:44;;;;;;;3.30;3.10;;;;;;;18.30;100.00;96891.72;4990898;28;20200;-69
2022/07/29 05:28:12;;;;;;;3.67;3.37;;;;;;;18.43;100.00;96892.47;5000946;28;20291;-70
2022/07/29 05:30:40;;;;;;;3.50;3.30;;;;;;;18.46;100.00;96891.97;4953430;28;21194;-67
2022/07/29 05:33:11;;;;;;;4.03;3.63;;;;;;;18.44;100.00;96894.09;5000624;28;20431;-68
2022/07/29 05:36:02;;;;;;;3.93;3.67;;;;;;;18.47;100.00;96912.38;5001507;28;20212;-67
2022/07/29 05:38:38;;;;;;;2.93;2.73;;;;;;;18.39;100.00;96908.25;4973201;28;20424;-66
2022/07/29 05:41:13;;;;;;;3.53;3.33;;;;;;;18.35;100.00;96902.53;5005359;28;20672;-67
2022/07/29 05:43:48;;;;;;;4.70;3.60;;;;;;;18.34;100.00;96913.50;5001583;28;20437;-68
2022/07/29 05:46:16;;;;;;;3.60;3.30;;;;;;;18.38;100.00;96906.63;4994042;28;20204;-66
2022/07/29 05:48:46;;;;;;;4.30;3.50;;;;;;;18.46;100.00;96916.94;4973399;28;20424;-67
2022/07/29 05:51:20;;;;;;;3.87;3.67;;;;;;;18.45;100.00;96920.69;4999915;28;20761;-66
2022/07/29 05:53:51;;;;;;;5.63;3.50;;;;;;;18.48;100.00;96911.31;4978423;28;20819;-67
2022/07/29 05:56:26;;;;;;;3.90;3.43;;;;;;;18.47;100.00;96910.53;5002348;28;20227;-66
2022/07/29 05:58:54;;;;;;;5.40;4.53;;;;;;;18.49;100.00;96911.09;5003180;28;20752;-68
2022/07/29 06:01:27;;;;;;;4.87;4.43;;;;;;;18.46;100.00;96922.31;4972972;28;20239;-66
2022/07/29 06:03:55;;;;;;;4.13;3.83;;;;;;;18.49;100.00;96916.47;4997424;28;20729;-66
2022/07/29 06:06:23;;;;;;;6.23;4.03;;;;;;;18.45;100.00;96918.00;5000094;28;20701;-66
2022/07/29 06:08:57;;;;;;;4.67;4.00;;;;;;;18.48;100.00;96912.16;4973895;28;21517;-67
2022/07/29 06:11:34;;;;;;;4.47;3.20;;;;;;;18.50;100.00;96918.09;4998927;28;20216;-67
2022/07/29 06:14:12;;;;;;;4.50;4.10;;;;;;;18.45;100.00;96917.19;4987037;28;20223;-66
2022/07/29 06:16:40;;;;;;;6.17;4.07;;;;;;;18.35;100.00;96924.00;5001672;28;20721;-69
2022/07/29 06:19:10;;;;;;;6.70;4.33;;;;;;;18.48;100.00;96911.31;4950451;28;20220;-67
2022/07/29 06:21:43;;;;;;;4.50;4.20;;;;;;;18.64;100.00;96910.56;5007326;28;20302;-69
2022/07/29 06:24:11;;;;;;;6.40;4.80;;;;;;;18.65;100.00;96908.66;4983806;28;20265;-65
2022/07/29 06:26:48;;;;;;;5.50;4.20;;;;;;;18.76;100.00;96921.22;5002047;28;20196;-68
2022/07/29 06:29:22;;;;;;;8.37;4.17;;;;;;;18.72;100.00;96914.69;5002983;28;20300;-66
2022/07/29 06:31:55;;;;;;;6.43;4.30;;;;;;;18.87;100.00;96924.06;5005502;28;20209;-69
2022/07/29 06:34:26;;;;;;;6.90;3.77;;;;;;;18.97;100.00;96915.38;4954835;28;20251;-66
2022/07/29 06:37:01;;;;;;;6.33;4.07;;;;;;;19.00;100.00;96910.34;5008110;28;20200;-68
2022/07/29 06:39:42;;;;;;;9.90;4.40;;;;;;;19.08;100.00;96909.91;4977682;28;21709;-69
2022/07/29 06:42:16;;;;;;;8.23;5.30;;;;;;;19.25;100.00;96909.09;5004805;28;20506;-67
2022/07/29 06:44:44;;;;;;;5.73;5.17;;;;;;;19.32;100.00;96911.59;5007186;28;20579;-69
2022/07/29 06:47:12;;;;;;;7.50;5.10;;;;;;;19.29;100.00;96912.91;5000551;28;20216;-68
2022/07/29 06:49:51;;;;;;;8.13;4.80;;;;;;;19.37;100.00;96909.78;4956928;28;20208;-67
2022/07/29 06:52:26;;;;;;;9.03;4.60;;;;;;;19.49;100.00;96915.06;4999006;28;20925;-69
2022/07/29 06:54:57;;;;;;;5.07;3.77;;;;;;;19.57;100.00;96916.53;4986335;28;20221;-69
2022/07/29 06:57:33;;;;;;;5.70;3.50;;;;;;;19.83;100.00;96916.81;5005435;28;20657;-69
2022/07/29 07:00:05;;;;;;;4.93;3.70;;;;;;;20.07;100.00;96920.09;5003475;28;20239;-65
2022/07/29 07:02:44;;;;;;;5.63;3.50;;;;;;;20.17;100.00;96927.47;5003298;28;20750;-69
2022/07/29 07:05:14;;;;;;;3.50;3.20;;;;;;;20.44;100.00;96940.13;4997552;28;20577;-67
2022/07/29 07:07:48;;;;;;;3.80;3.60;;;;;;;20.59;100.00;96949.41;4950162;28;20878;-67
2022/07/29 07:10:21;;;;;;;4.27;3.37;;;;;;;20.62;96.67;96951.59;5001993;28;20819;-67
2022/07/29 07:12:58;;;;;;;3.83;3.43;;;;;;;20.45;97.07;96955.19;4983670;28;21107;-68
2022/07/29 07:15:39;;;;;;;5.37;3.80;;;;;;;20.50;99.33;96954.44;5003971;28;20299;-67
2022/07/29 07:18:12;;;;;;;4.00;3.63;;;;;;;20.49;99.34;96952.84;4980391;28;20223;-69
2022/07/29 07:20:43;;;;;;;4.37;3.47;;;;;;;20.46;100.00;96950.66;5002161;28;20439;-70
2022/07/29 07:23:14;;;;;;;5.70;4.33;;;;;;;20.71;98.65;96952.78;4935466;28;20250;-67
2022/07/29 07:25:44;;;;;;;4.17;3.83;;;;;;;20.90;95.36;96947.84;5004471;28;20915;-69
2022/07/29 07:28:15;;;;;;;3.67;3.43;;;;;;;21.21;87.54;96955.34;4986305;28;20216;-68
2022/07/29 07:30:46;;;;;;;3.60;3.27;;;;;;;21.52;86.85;96955.56;5003039;28;20203;-69
2022/07/29 07:33:18;;;;;;;4.20;3.93;;;;;;;22.12;87.95;96949.91;5006083;28;20523;-68
2022/07/29 07:35:47;;;;;;;3.77;3.57;;;;;;;22.30;80.75;96950.53;5004068;28;20977;-70
2022/07/29 07:38:15;;;;;;;2.97;2.77;;;;;;;22.56;74.49;96951.41;4905947;28;20398;-67
2022/07/29 07:40:43;;;;;;;3.70;3.40;;;;;;;22.63;74.52;96945.78;5001135;28;20311;-69
2022/07/29 07:43:15;;;;;;;4.10;3.50;;;;;;;22.93;67.91;96952.28;4964607;28;20335;-70
2022/07/29 07:45:47;;;;;;;4.27;2.90;;;;;;;22.90;73.22;96942.81;5002537;28;20771;-69
2022/07/29 07:48:24;;;;;;;3.43;3.20;;;;;;;22.79;66.92;96944.69;4999052;28;20215;-69
2022/07/29 07:50:54;;;;;;;5.87;4.10;;;;;;;22.67;73.91;96942.25;5005846;28;20265;-67
2022/07/29 07:53:22;;;;;;;4.80;3.10;;;;;;;22.64;71.65;96934.69;4956516;28;20807;-67
2022/07/29 07:55:50;;;;;;;3.73;3.10;;;;;;;22.52;75.66;96947.63;4987501;28;20201;-69
2022/07/29 07:58:42;;;;;;;4.70;4.17;;;;;;;22.40;80.61;96945.97;4990157;28;20223;-68
2022/07/29 08:01:10;;;;;;;3.93;3.33;;;;;;;22.33;82.10;96945.38;4984221;28;20639;-66
2022/07/29 08:03:39;;;;;;;3.80;3.30;;;;;;;21.96;84.89;96957.13;5007506;28;20232;-67
2022/07/29 08:06:07;;;;;;;5.20;4.70;;;;;;;21.95;83.19;96950.94;5000194;28;20311;-66
2022/07/29 08:08:51;;;;;;;4.23;3.73;;;;;;;21.97;86.26;96942.56;4961774;28;20224;-68
2022/07/29 08:11:25;;;;;;;5.03;3.97;;;;;;;22.09;83.58;96948.56;4987387;28;20306;-67
2022/07/29 08:14:08;;;;;;;3.83;3.50;;;;;;;22.32;79.16;96954.56;4987253;28;20483;-68
2022/07/29 08:16:42;;;;;;;4.67;4.13;;;;;;;22.60;83.41;96947.09;5006263;28;20204;-68
2022/07/29 08:19:14;;;;;;;4.73;4.30;;;;;;;22.67;75.70;96949.56;5000705;28;20206;-68
2022/07/29 08:21:43;;;;;;;3.97;3.67;;;;;;;22.82;77.22;96952.25;5003326;28;20566;-69
2022/07/29 08:27:05;;;;;;;4.13;3.83;;;;;;;22.24;80.81;96953.22;4984010;28;20608;-66
2022/07/29 08:29:55;;;;;;;4.07;3.77;;;;;;;22.04;87.12;96951.25;4983059;28;20708;-67
2022/07/29 08:32:29;;;;;;;4.03;3.73;;;;;;;21.82;86.86;96954.94;4993263;28;20471;-69
2022/07/29 08:35:17;;;;;;;4.70;4.30;;;;;;;21.93;89.13;96958.50;4987212;28;20301;-69
2022/07/29 08:37:48;;;;;;;4.53;4.13;;;;;;;22.12;84.77;96952.63;5004017;28;20290;-68
2022/07/29 08:40:20;;;;;;;5.40;4.20;;;;;;;22.34;86.29;96938.91;4961521;28;20212;-68
2022/07/29 08:42:59;;;;;;;5.47;4.50;;;;;;;22.86;81.88;96944.44;4984316;28;20212;-66
2022/07/29 08:45:30;;;;;;;4.97;4.33;;;;;;;23.09;77.10;96940.38;4984788;28;21008;-67
2022/07/29 08:47:58;;;;;;;4.43;4.00;;;;;;;22.78;83.71;96945.78;5001756;28;20200;-65
2022/07/29 08:50:33;;;;;;;5.07;4.30;;;;;;;23.04;83.90;96939.56;4982078;28;20300;-68
2022/07/29 08:53:04;;;;;;;5.33;4.83;;;;;;;23.30;80.68;96934.16;5004184;28;20613;-65
2022/07/29 08:55:37;;;;;;;4.53;4.23;;;;;;;23.93;78.34;96946.44;4960537;28;20254;-65
2022/07/29 08:58:08;;;;;;;4.33;4.03;;;;;;;24.06;75.99;96945.88;4986357;28;20212;-68
2022/07/29 09:00:45;;;;;;;5.33;4.30;;;;;;;24.30;74.08;96941.69;4996993;28;20534;-64
2022/07/29 09:03:17;;;;;;;4.50;4.10;;;;;;;24.20;75.16;96937.97;5004680;28;20323;-67
2022/07/29 09:05:46;;;;;;;4.33;4.03;;;;;;;23.85;79.02;96940.50;4984498;28;20531;-65
2022/07/29 09:08:18;;;;;;;7.80;4.43;;;;;;;23.07;89.20;96944.41;5007603;28;20227;-67
2022/07/29 09:10:55;;;;;;;4.83;4.53;;;;;;;22.91;93.32;96941.72;4960653;28;20622;-65
2022/07/29 09:13:30;;;;;;;5.43;4.63;;;;;;;22.77;95.75;96944.16;4957109;28;20232;-69
2022/07/29 09:16:11;;;;;;;4.97;4.57;;;;;;;22.83;97.54;96943.06;5011937;28;20288;-68
2022/07/29 09:18:40;;;;;;;4.97;4.47;;;;;;;23.33;93.56;96934.44;5010878;28;20205;-67
2022/07/29 09:24:09;;;;;;;4.13;3.80;;;;;;;24.92;80.41;96925.06;4989455;28;20310;-66
2022/07/29 09:26:47;;;;;;;4.53;4.23;;;;;;;25.27;73.62;96929.34;5006667;28;20740;-67
2022/07/29 09:29:18;;;;;;;4.43;3.70;;;;;;;25.74;71.33;96931.59;4943051;28;20727;-67
2022/07/29 09:31:50;;;;;;;4.20;3.90;;;;;;;25.89;72.58;96932.53;5008396;28;20982;-66
2022/07/29 09:34:26;;;;;;;4.23;3.80;;;;;;;25.61;70.64;96935.84;5000632;28;20224;-68
2022/07/29 09:36:57;;;;;;;4.17;3.83;;;;;;;25.90;69.78;96929.50;5004251;28;20283;-69
2022/07/29 09:39:32;;;;;;;4.23;3.90;;;;;;;26.53;67.15;96924.91;4998937;28;20483;-67
2022/07/29 09:42:04;;;;;;;4.70;4.40;;;;;;;26.42;66.68;96918.03;5004456;28;20229;-67
2022/07/29 09:44:43;;;;;;;4.33;3.93;;;;;;;26.55;61.07;96913.78;4961497;28;20286;-66
2022/07/29 09:47:16;;;;;;;4.77;3.87;;;;;;;26.68;63.72;96910.28;4981315;28;20598;-65
2022/07/29 09:50:01;;;;;;;4.23;3.97;;;;;;;26.48;59.82;96908.69;5002849;28;20197;-67
2022/07/29 09:52:32;;;;;;;4.40;4.10;;;;;;;26.67;61.14;96905.13;4998553;28;20327;-67
2022/07/29 09:55:13;;;;;;;4.10;3.80;;;;;;;26.80;58.47;96909.84;5005129;28;20310;-66
2022/07/29 09:57:51;;;;;;;4.47;4.07;;;;;;;26.71;60.34;96906.97;5007594;28;20278;-67
2022/07/29 10:00:27;;;;;;;4.63;4.40;;;;;;;26.34;61.53;96892.31;4950970;28;21587;-69
2022/07/29 10:03:20;;;;;;;4.53;4.33;;;;;;;26.79;60.28;96897.34;5003717;28;20235;-67
2022/07/29 10:06:06;;;;;;;5.03;3.77;;;;;;;26.53;62.55;96902.38;5005967;28;20231;-68
2022/07/29 10:08:46;;;;;;;4.43;3.90;;;;;;;26.33;60.01;96898.03;5005003;28;20674;-69
2022/07/29 10:11:18;;;;;;;4.47;4.17;;;;;;;26.60;62.14;96897.38;5005325;28;20247;-68
2022/07/29 10:13:51;;;;;;;6.23;4.10;;;;;;;26.69;59.74;96901.03;5004315;28;20229;-69
2022/07/29 10:16:21;;;;;;;4.00;3.70;;;;;;;26.89;57.57;96888.22;4944865;28;20521;-68
2022/07/29 10:18:59;;;;;;;4.23;3.90;;;;;;;27.21;64.81;96892.03;5005554;28;20294;-69
2022/07/29 10:21:33;;;;;;;4.43;4.13;;;;;;;27.63;54.17;96894.00;5002702;28;20295;-70
2022/07/29 10:24:05;;;;;;;4.20;3.90;;;;;;;28.22;52.57;96896.09;5003246;28;20723;-65
2022/07/29 10:26:43;;;;;;;5.90;3.93;;;;;;;28.19;53.13;96883.88;5004972;28;20367;-69
2022/07/29 10:29:12;;;;;;;5.03;3.90;;;;;;;28.33;52.68;96872.94;4997600;28;20305;-69
2022/07/29 10:31:52;;;;;;;8.50;4.70;;;;;;;28.03;54.92;96876.03;4946646;28;20224;-67
2022/07/29 10:34:38;;;;;;;6.70;4.10;;;;;;;27.98;53.57;96878.88;5006554;28;20278;-65
2022/07/29 10:37:14;;;;;;;4.57;4.17;;;;;;;27.98;54.20;96873.44;5005394;28;20496;-64
2022/07/29 10:39:56;;;;;;;4.50;4.20;;;;;;;27.06;57.13;96873.28;5006018;28;20205;-65
2022/07/29 10:42:31;;;;;;;4.37;4.17;;;;;;;26.85;60.15;96877.16;5009227;28;20255;-66
2022/07/29 10:45:09;;;;;;;4.77;4.47;;;;;;;26.53;61.44;96869.78;5002248;28;20561;-66
2022/07/29 10:47:42;;;;;;;5.10;4.57;;;;;;;26.70;62.61;96871.94;4945833;28;20232;-66
2022/07/29 10:50:19;;;;;;;4.60;4.30;;;;;;;26.91;61.49;96875.19;4997888;28;21114;-67
2022/07/29 10:52:59;;;;;;;4.50;4.17;;;;;;;26.96;62.05;96875.09;5004161;28;20236;-66
2022/07/29 10:55:36;;;;;;;4.70;4.50;;;;;;;26.66;60.58;96869.03;5000831;28;20250;-68
2022/07/29 10:58:17;;;;;;;4.60;4.40;;;;;;;26.29;68.10;96871.47;5001517;28;20992;-65
2022/07/29 11:00:54;;;;;;;4.90;4.50;;;;;;;26.54;64.38;96865.97;5004442;28;20208;-65
2022/07/29 11:03:47;;;;;;;8.20;4.47;;;;;;;26.98;62.71;96858.47;4949493;28;20230;-68
2022/07/29 11:07:12;;;;;;;5.17;4.87;;;;;;;27.12;59.75;96859.31;5005436;28;20613;-65
2022/07/29 11:09:45;;;;;;;5.43;4.93;;;;;;;27.06;61.15;96857.78;4994102;28;20618;-66
2022/07/29 11:12:43;;;;;;;5.50;5.10;;;;;;;26.96;60.81;96857.97;5005911;28;20426;-68
2022/07/29 11:15:18;;;;;;;4.63;4.33;;;;;;;27.08;59.51;96843.88;5002420;28;20983;-64
2022/07/29 11:18:10;;;;;;;4.67;4.47;;;;;;;27.51;58.78;96853.72;4960783;28;20208;-63
2022/07/29 11:20:45;;;;;;;4.90;4.60;;;;;;;27.45;55.90;96847.53;5006085;28;20620;-65
2022/07/29 11:23:24;;;;;;;4.97;4.67;;;;;;;27.23;58.63;96848.25;5004267;28;20449;-66
2022/07/29 11:26:15;;;;;;;4.30;3.90;;;;;;;27.32;57.71;96840.19;4995312;28;20278;-65
2022/07/29 11:29:20;;;;;;;4.87;4.47;;;;;;;27.11;60.42;96838.66;4976261;28;20216;-65
2022/07/29 11:31:53;;;;;;;4.73;4.40;;;;;;;27.13;62.36;96844.63;4993954;28;20216;-63
2022/07/29 11:34:29;;;;;;;4.70;4.27;;;;;;;27.29;57.77;96847.84;5000328;28;20487;-64
2022/07/29 11:37:22;;;;;;;4.70;4.40;;;;;;;27.66;55.32;96836.28;4985280;28;20591;-64
2022/07/29 11:40:15;;;;;;;4.90;4.60;;;;;;;28.35;54.73;96838.03;5003438;28;20219;-65
2022/07/29 11:42:50;;;;;;;4.60;4.30;;;;;;;28.82;51.26;96845.94;5003614;28;20265;-62
2022/07/29 11:45:27;;;;;;;4.23;4.03;;;;;;;29.00;44.30;96837.84;4957354;28;20621;-64
2022/07/29 11:48:17;;;;;;;4.37;3.73;;;;;;;29.42;44.48;96834.84;4999359;28;20555;-68
2022/07/29 11:50:58;;;;;;;3.50;3.30;;;;;;;29.23;43.40;96835.88;5004714;28;20578;-66
2022/07/29 11:53:31;;;;;;;3.63;3.33;;;;;;;28.91;44.72;96836.97;4993883;28;20232;-65
2022/07/29 11:56:22;;;;;;;3.60;3.40;;;;;;;28.62;43.72;96846.41;4970687;28;23675;-68
2022/07/29 11:59:05;;;;;;;3.47;3.33;;;;;;;28.70;43.36;96838.28;5004160;28;20239;-65
2022/07/29 12:01:37;;;;;;;3.90;2.83;;;;;;;29.47;41.50;96837.41;4959618;28;20221;-66
2022/07/29 12:04:07;;;;;;;3.37;3.17;;;;;;;29.94;38.93;96827.91;5001136;28;20505;-66
2022/07/29 12:06:42;;;;;;;3.67;3.37;;;;;;;29.85;41.30;96838.81;5003272;28;20234;-67
2022/07/29 12:09:17;;;;;;;3.97;3.77;;;;;;;29.58;40.10;96843.41;4999948;28;20202;-67
2022/07/29 12:11:56;;;;;;;3.10;2.90;;;;;;;29.54;40.60;96842.41;5002003;28;20219;-68
2022/07/29 12:14:33;;;;;;;4.43;3.10;;;;;;;28.98;41.55;96840.88;4996116;28;20660;-65
2022/07/29 12:17:02;;;;;;;3.30;3.00;;;;;;;28.83;42.08;96839.34;4939368;28;20243;-63
2022/07/29 12:19:42;;;;;;;3.30;3.10;;;;;;;28.63;43.09;96834.41;4997854;28;20698;-65
2022/07/29 12:22:12;;;;;;;2.77;2.67;;;;;;;28.50;41.09;96833.34;4986677;28;20263;-63
2022/07/29 12:24:50;;;;;;;3.30;3.10;;;;;;;28.37;40.24;96821.41;5003381;28;20348;-65
2022/07/29 12:27:30;;;;;;;3.23;2.90;;;;;;;28.13;41.85;96825.19;4999043;28;20512;-66
2022/07/29 12:29:59;;;;;;;2.93;2.73;;;;;;;28.41;43.40;96825.13;4988958;28;21041;-65
2022/07/29 12:32:33;;;;;;;3.00;2.80;;;;;;;27.97;42.06;96817.38;4957248;28;20487;-66
2022/07/29 12:35:07;;;;;;;3.00;2.80;;;;;;;27.74;42.79;96820.03;4977324;28;20259;-65
2022/07/29 12:37:40;;;;;;;2.70;2.57;;;;;;;27.56;42.42;96827.19;5006596;28;21050;-67
2022/07/29 12:40:12;;;;;;;3.40;3.10;;;;;;;27.58;43.88;96826.91;4982587;28;20306;-65
2022/07/29 12:42:45;;;;;;;2.70;2.60;;;;;;;27.50;45.27;96828.41;4981945;28;20211;-64
2022/07/29 12:45:28;;;;;;;2.77;2.63;;;;;;;27.34;44.70;96829.81;4986576;28;20263;-66
2022/07/29 12:47:58;;;;;;;2.40;2.30;;;;;;;27.06;45.59;96822.44;4937192;28;20712;-66
2022/07/29 12:50:26;;;;;;;4.10;2.83;;;;;;;27.01;48.35;96819.81;5002857;28;21090;-64
2022/07/29 12:53:08;;;;;;;3.00;2.50;;;;;;;26.90;49.63;96819.22;5003736;28;20434;-67
2022/07/29 12:55:48;;;;;;;2.90;2.70;;;;;;;26.72;51.45;96823.56;5004118;28;20702;-66
2022/07/29 12:58:29;;;;;;;2.67;2.47;;;;;;;26.62;53.35;96835.41;4967235;28;20211;-67
2022/07/29 13:01:11;;;;;;;4.83;3.00;;;;;;;26.36;59.47;96826.88;4988859;28;20858;-64
2022/07/29 13:03:52;;;;;;;2.60;2.50;;;;;;;26.48;61.09;96823.69;4959424;28;20370;-67
2022/07/29 13:06:36;;;;;;;4.37;2.97;;;;;;;26.25;75.28;96815.34;4976785;28;20295;-66
2022/07/29 13:09:10;;;;;;;6.03;3.17;;;;;;;26.24;79.95;96817.25;5003981;28;20251;-68
2022/07/29 13:11:46;;;;;;;3.03;2.77;;;;;;;26.08;86.41;96822.06;4998750;28;20204;-66
2022/07/29 13:14:37;;;;;;;2.90;2.80;;;;;;;26.00;93.03;96822.75;4979483;28;20263;-66
2022/07/29 13:17:09;;;;;;;3.80;3.43;;;;;;;25.91;94.58;96808.22;4987166;28;20583;-66
2022/07/29 13:19:40;;;;;;;4.03;2.90;;;;;;;25.96;99.23;96806.25;4950836;28;20216;-64
2022/07/29 13:22:08;;;;;;;2.70;2.50;;;;;;;25.88;93.11;96795.25;4988267;28;20219;-66
2022/07/29 13:24:50;;;;;;;3.23;2.80;;;;;;;25.88;95.75;96789.81;4979384;28;20511;-64
2022/07/29 13:27:24;;;;;;;3.03;2.40;;;;;;;25.75;96.25;96788.63;5004258;28;20236;-65
2022/07/29 13:29:57;;;;;;;2.93;2.80;;;;;;;25.85;100.00;96789.31;4996839;28;20304;-66
2022/07/29 13:32:27;;;;;;;2.90;2.47;;;;;;;25.93;100.00;96787.03;4965316;28;20490;-67
2022/07/29 13:35:00;;;;;;;2.60;2.50;;;;;;;25.94;100.00;96792.16;4962899;28;20333;-65
2022/07/29 13:37:33;;;;;;;2.87;2.67;;;;;;;25.95;100.00;96796.50;4953707;28;20204;-67
2022/07/29 13:40:06;;;;;;;3.00;2.70;;;;;;;25.69;100.00;96788.72;4987587;28;20605;-64
2022/07/29 13:42:34;;;;;;;3.50;3.20;;;;;;;25.58;100.00;96792.66;5006442;28;20233;-66
2022/07/29 13:45:06;;;;;;;3.03;2.83;;;;;;;25.51;100.00;96793.00;4975048;28;20955;-67
2022/07/29 13:47:37;;;;;;;3.30;3.03;;;;;;;25.49;100.00;96799.81;5006575;28;20334;-65
2022/07/29 13:50:11;;;;;;;4.07;3.63;;;;;;;25.22;94.60;96796.56;4988475;28;20419;-67
2022/07/29 13:52:54;;;;;;;3.17;2.83;;;;;;;25.18;99.55;96794.72;4973620;28;20212;-66
2022/07/29 13:55:27;;;;;;;3.40;2.87;;;;;;;25.26;100.00;96789.47;5005527;28;20266;-67
2022/07/29 13:58:04;;;;;;;6.13;3.40;;;;;;;25.23;100.00;96792.78;4991062;28;20272;-66
2022/07/29 14:00:34;;;;;;;3.10;2.80;;;;;;;25.24;100.00;96788.16;5006716;28;20213;-63
2022/07/29 14:03:06;;;;;;;3.50;3.20;;;;;;;25.35;100.00;96794.25;4970758;28;20533;-66
2022/07/29 14:05:37;;;;;;;3.37;3.17;;;;;;;25.43;100.00;96789.00;4985491;28;20361;-64
2022/07/29 14:08:05;;;;;;;3.07;2.80;;;;;;;25.63;100.00;96798.03;4989710;28;20224;-66
2022/07/29 14:10:34;;;;;;;3.07;2.87;;;;;;;25.70;100.00;96803.88;4959377;28;20613;-65
2022/07/29 14:13:02;;;;;;;4.33;3.00;;;;;;;25.52;96.84;96801.94;5006399;28;20209;-66
2022/07/29 14:15:33;;;;;;;3.03;2.77;;;;;;;25.49;98.73;96794.38;5004164;28;20431;-65
2022/07/29 14:18:11;;;;;;;3.20;2.90;;;;;;;25.77;95.21;96800.81;5005240;28;20204;-66
2022/07/29 14:20:39;;;;;;;3.47;3.17;;;;;;;25.97;92.34;96794.28;4986064;28;20513;-64
2022/07/29 14:23:08;;;;;;;6.73;2.93;;;;;;;25.77;93.11;96794.56;4994729;28;20271;-66
2022/07/29 14:25:40;;;;;;;5.20;3.03;;;;;;;25.69;94.52;96791.41;4931404;28;20807;-65
2022/07/29 14:28:13;;;;;;;2.50;2.30;;;;;;;25.36;94.31;96785.84;5004767;28;20438;-67